Página principal
METAR-TAF:

METAR-TAF

Aeroportos :

Bamako, Mali

Aeroporto Internacional Modibo Keita

latitude: 12-32N, longitude: 007-57W, altura: 380 m

Observação actual do tempo

O boletim foi feito há 18 minutos, às 15:00 UTC
Vento 3 kt de este
Temperatura 35°C
Humidade 8%
Pressão 1011 hPa
Visibilidade 10 km ou mais
sem nuvens abaixo de 1500 metros e sem cumulonimbus

METAR: GABS 161500Z 10003KT CAVOK 35/M04 Q1011 NOSIG

Hora: 15:18 (15:18 UTC)

Previsão

O boletim foi feito há 4 horas e 18 minutos, às 11:00 UTC
Previsão válida de 16 às 12 UTC a 17 às 18 UTC
Vento 5 kt com direcção variável
Visibilidade: 8000 m
Probabilidade 30% :
Temporariamente
de 17 às 08 UTC a 17 às 14 UTC
Visibilidade: 4500 m
bruma

TAF: GABS 161100Z 1612/1718 VRB05KT 8000 NSC PROB30 TEMPO 1708/1714 4500 HZ

Observações e previsões do tempo de mais de 4000 aeroportos (mensagens METAR e TAF).

As estações disponíveis são os pontos amarelos e vermelhos sobre o mapa.

Mova o rato sobre o mapa para ver o nome da estação.

Depois clique no ponto para visualizar as observações e previsões meteorológicas.

Para alterar o mapa : clique nos botões verdes com uma cruz preta para aumentar o zoom; no botão verde com uma pitada de zoom; ou nas setas verdes para mapas adjacentes.


METAR-TAF: